createdAt,value
2023-03-02T00:01:49.704Z,102737.44
2023-03-02T00:04:25.515Z,102747.25
2023-03-02T00:06:57.270Z,102751.88
2023-03-02T00:09:24.328Z,102749.59
2023-03-02T00:11:51.685Z,102751.63
2023-03-02T00:14:18.207Z,102750.59
2023-03-02T00:16:44.712Z,102737.34
2023-03-02T00:19:11.171Z,102676.13
2023-03-02T00:21:37.659Z,102738.44
2023-03-02T00:24:04.585Z,102683.97
2023-03-02T00:26:36.624Z,102737.53
2023-03-02T00:29:03.692Z,102743.56
2023-03-02T00:31:30.412Z,102690.28
2023-03-02T00:33:56.991Z,102694.72
2023-03-02T00:36:23.859Z,102727.81
2023-03-02T00:38:52.353Z,102698.13
2023-03-02T00:41:21.716Z,102733.25
2023-03-02T00:43:49.031Z,102717.22
2023-03-02T00:46:19.923Z,102714.72
2023-03-02T00:48:47.203Z,102644.66
2023-03-02T00:51:15.090Z,102725.53
2023-03-02T00:53:41.997Z,102718.38
2023-03-02T00:56:09.397Z,102723.53
2023-03-02T00:58:36.643Z,102726.00
2023-03-02T01:01:09.752Z,102718.78
2023-03-02T01:03:37.156Z,102675.31
2023-03-02T01:06:04.890Z,102710.44
2023-03-02T01:08:31.962Z,102701.28
2023-03-02T01:11:01.343Z,102685.69
2023-03-02T01:13:28.521Z,102712.22
2023-03-02T01:16:03.032Z,102651.59
2023-03-02T01:18:29.606Z,102696.28
2023-03-02T01:21:03.935Z,102686.78
2023-03-02T01:23:30.398Z,102695.16
2023-03-02T01:25:57.022Z,102627.84
2023-03-02T01:28:23.758Z,102685.41
2023-03-02T01:30:50.369Z,102638.41
2023-03-02T01:33:16.888Z,102669.91
2023-03-02T01:35:46.346Z,102650.78
2023-03-02T01:38:13.747Z,102655.13
2023-03-02T01:40:41.268Z,102683.22
2023-03-02T01:43:13.473Z,102678.88
2023-03-02T01:45:48.310Z,102612.47
2023-03-02T01:48:18.489Z,102680.81
2023-03-02T01:50:47.187Z,102613.22
2023-03-02T01:53:23.006Z,102672.63
2023-03-02T01:55:49.867Z,102677.41
2023-03-02T01:58:17.254Z,102662.34
2023-03-02T02:00:45.179Z,102680.81
2023-03-02T02:03:21.183Z,102669.47
2023-03-02T02:06:04.339Z,102656.16
2023-03-02T02:08:31.499Z,102662.41
2023-03-02T02:10:58.586Z,102670.47
2023-03-02T02:13:25.296Z,102659.69
2023-03-02T02:15:52.010Z,102601.78
2023-03-02T02:18:18.581Z,102665.72
2023-03-02T02:20:46.900Z,102664.56
2023-03-02T02:23:25.837Z,102661.06
2023-03-02T02:25:58.450Z,102661.56
2023-03-02T02:28:31.534Z,102651.00
2023-03-02T02:31:07.819Z,102631.25
2023-03-02T02:33:36.758Z,102663.69
2023-03-02T02:36:08.667Z,102654.16
2023-03-02T02:38:37.242Z,102595.19
2023-03-02T02:41:08.075Z,102615.41
2023-03-02T02:43:34.750Z,102648.00
2023-03-02T02:46:02.366Z,102590.22
2023-03-02T02:48:31.310Z,102637.56
2023-03-02T02:51:03.298Z,102634.59
2023-03-02T02:53:50.197Z,102649.69
2023-03-02T02:56:17.526Z,102674.63
2023-03-02T02:58:47.865Z,102646.19
2023-03-02T03:01:16.799Z,102643.38
2023-03-02T03:03:50.397Z,102643.72
2023-03-02T03:06:21.108Z,102640.19
2023-03-02T03:08:47.531Z,102646.22
2023-03-02T03:11:19.415Z,102643.03
2023-03-02T03:13:47.056Z,102637.72
2023-03-02T03:16:17.096Z,102639.44
2023-03-02T03:18:46.244Z,102568.38
2023-03-02T03:21:12.804Z,102646.19
2023-03-02T03:23:39.248Z,102614.19
2023-03-02T03:26:06.188Z,102641.84
2023-03-02T03:28:33.448Z,102665.66
2023-03-02T03:31:00.018Z,102590.94
2023-03-02T03:33:26.601Z,102613.22
2023-03-02T03:35:53.202Z,102633.56
2023-03-02T03:38:19.854Z,102642.09
2023-03-02T03:40:46.677Z,102654.41
2023-03-02T03:43:15.219Z,102644.75
2023-03-02T03:45:41.698Z,102649.97
2023-03-02T03:48:08.223Z,102593.94
2023-03-02T03:50:35.599Z,102636.81
2023-03-02T03:53:03.839Z,102637.44
2023-03-02T03:55:31.243Z,102589.88
2023-03-02T03:57:57.791Z,102618.72
2023-03-02T04:00:24.366Z,102603.78
2023-03-02T04:02:50.999Z,102636.22
2023-03-02T04:05:17.841Z,102646.78
2023-03-02T04:07:44.339Z,102637.25
2023-03-02T04:10:12.418Z,102589.63
2023-03-02T04:12:41.024Z,102640.69
2023-03-02T04:15:13.057Z,102580.84
2023-03-02T04:17:39.566Z,102646.53
2023-03-02T04:20:09.746Z,102586.84
2023-03-02T04:22:36.387Z,102610.13
2023-03-02T04:25:03.245Z,102671.56
2023-03-02T04:27:29.734Z,102644.56
2023-03-02T04:29:56.234Z,102646.69
2023-03-02T04:32:22.782Z,102571.31
2023-03-02T04:34:49.318Z,102634.38
2023-03-02T04:37:16.116Z,102629.34
2023-03-02T04:39:47.443Z,102647.00
2023-03-02T04:42:14.014Z,102657.75
2023-03-02T04:44:40.553Z,102649.88
2023-03-02T04:47:07.046Z,102658.53
2023-03-02T04:49:33.511Z,102629.50
2023-03-02T04:52:00.212Z,102656.13
2023-03-02T04:54:27.712Z,102568.44
2023-03-02T04:56:54.951Z,102642.06
2023-03-02T04:59:26.072Z,102619.31
2023-03-02T05:01:57.678Z,102658.63
2023-03-02T05:04:24.770Z,102658.44
2023-03-02T05:06:51.384Z,102655.94
2023-03-02T05:09:18.209Z,102628.25
2023-03-02T05:11:44.839Z,102667.59
2023-03-02T05:14:13.003Z,102651.75
2023-03-02T05:16:41.866Z,102622.78
2023-03-02T05:19:10.840Z,102660.63
2023-03-02T05:21:37.355Z,102669.59
2023-03-02T05:24:04.620Z,102676.78
2023-03-02T05:26:31.759Z,102610.81
2023-03-02T05:28:58.437Z,102602.88
2023-03-02T05:31:32.652Z,102672.22
2023-03-02T05:33:59.169Z,102621.03
2023-03-02T05:36:25.700Z,102662.66
2023-03-02T05:38:52.247Z,102603.91
2023-03-02T05:41:18.807Z,102646.31
2023-03-02T05:43:45.337Z,102650.50
2023-03-02T05:46:11.774Z,102654.09
2023-03-02T05:48:38.265Z,102637.22
2023-03-02T05:51:05.408Z,102588.66
2023-03-02T05:53:31.881Z,102659.69
2023-03-02T05:55:58.441Z,102656.16
2023-03-02T05:58:24.965Z,102655.44
2023-03-02T06:00:52.523Z,102655.28
2023-03-02T06:03:19.128Z,102585.38
2023-03-02T06:05:50.764Z,102652.69
2023-03-02T06:08:21.651Z,102639.63
2023-03-02T06:10:50.738Z,102617.69
2023-03-02T06:13:17.356Z,102663.94
2023-03-02T06:15:44.046Z,102674.44
2023-03-02T06:18:12.604Z,102676.16
2023-03-02T06:20:40.501Z,102670.16
2023-03-02T06:23:07.175Z,102654.19
2023-03-02T06:25:36.113Z,102631.41
2023-03-02T06:28:02.687Z,102677.75
2023-03-02T06:30:29.377Z,102675.78
2023-03-02T06:32:55.912Z,102633.09
2023-03-02T06:35:24.064Z,102656.69
2023-03-02T06:37:51.001Z,102618.06
2023-03-02T06:40:17.861Z,102601.22
2023-03-02T06:42:44.452Z,102650.06
2023-03-02T06:45:11.504Z,102617.34
2023-03-02T06:47:38.200Z,102626.25
2023-03-02T06:50:06.459Z,102661.09
2023-03-02T06:52:33.405Z,102642.25
2023-03-02T06:55:00.124Z,102662.34
2023-03-02T06:57:33.784Z,102665.81
2023-03-02T07:00:02.425Z,102667.31
2023-03-02T07:02:28.946Z,102661.03
2023-03-02T07:04:55.442Z,102593.72
2023-03-02T07:07:21.886Z,102585.97
2023-03-02T07:09:48.394Z,102657.75
2023-03-02T07:12:14.938Z,102645.31
2023-03-02T07:14:41.407Z,102664.19
2023-03-02T07:17:08.901Z,102652.97
2023-03-02T07:19:35.463Z,102636.16
2023-03-02T07:22:01.980Z,102668.47
2023-03-02T07:24:28.633Z,102664.19
2023-03-02T07:26:55.110Z,102607.41
2023-03-02T07:29:21.575Z,102658.09
2023-03-02T07:31:48.652Z,102578.03
2023-03-02T07:34:16.359Z,102594.59
2023-03-02T07:36:42.814Z,102641.13
2023-03-02T07:39:09.398Z,102657.78
2023-03-02T07:41:36.071Z,102612.81
2023-03-02T07:44:02.606Z,102619.00
2023-03-02T07:46:29.100Z,102658.91
2023-03-02T07:48:56.563Z,102660.34
2023-03-02T07:51:23.303Z,102650.41
2023-03-02T07:53:49.857Z,102614.53
2023-03-02T07:56:16.559Z,102635.25
2023-03-02T07:58:43.122Z,102644.03
2023-03-02T08:01:10.061Z,102597.94
2023-03-02T08:03:37.101Z,102647.34
2023-03-02T08:06:08.417Z,102642.69
2023-03-02T08:08:35.884Z,102639.69
2023-03-02T08:11:17.119Z,102639.00
2023-03-02T08:13:44.553Z,102599.66
2023-03-02T08:16:13.278Z,102593.97
2023-03-02T08:18:40.730Z,102590.56
2023-03-02T08:21:15.973Z,102631.47
2023-03-02T08:23:43.276Z,102633.47
2023-03-02T08:26:12.497Z,102632.09
2023-03-02T08:28:40.584Z,102631.69
2023-03-02T08:31:09.138Z,102558.06
2023-03-02T08:33:36.352Z,102602.84
2023-03-02T08:36:07.204Z,102633.28
2023-03-02T08:38:35.083Z,102621.81
2023-03-02T08:41:07.366Z,102641.91
2023-03-02T08:43:34.549Z,102638.13
2023-03-02T08:46:01.923Z,102639.34
2023-03-02T08:48:29.506Z,102627.94
2023-03-02T08:50:59.174Z,102629.63
2023-03-02T08:53:26.577Z,102618.50
2023-03-02T08:55:53.205Z,102591.19
2023-03-02T08:58:19.669Z,102629.59
2023-03-02T09:00:46.480Z,102609.72
2023-03-02T09:03:13.145Z,102627.44
2023-03-02T09:05:39.735Z,102585.53
2023-03-02T09:08:06.939Z,102621.47
2023-03-02T09:10:33.686Z,102585.66
2023-03-02T09:13:00.222Z,102610.94
2023-03-02T09:15:26.823Z,102618.75
2023-03-02T09:17:53.635Z,102573.81
2023-03-02T09:20:20.126Z,102571.50
2023-03-02T09:22:50.741Z,102541.53
2023-03-02T09:25:18.817Z,102555.22
2023-03-02T09:27:47.027Z,102613.19
2023-03-02T09:30:15.613Z,102591.28
2023-03-02T09:32:42.484Z,102610.28
2023-03-02T09:35:09.371Z,102607.03
2023-03-02T09:37:38.945Z,102584.28
2023-03-02T09:40:15.696Z,102592.53
2023-03-02T09:43:14.563Z,102625.97
2023-03-02T09:45:52.168Z,102623.66
2023-03-02T09:48:31.821Z,102628.53
2023-03-02T09:51:16.285Z,102619.81
2023-03-02T09:54:05.299Z,102615.91
2023-03-02T09:56:35.995Z,102606.56
2023-03-02T09:59:13.731Z,102611.47
2023-03-02T10:01:51.168Z,102615.81
2023-03-02T10:04:36.375Z,102614.53
2023-03-02T10:07:13.764Z,102615.00
2023-03-02T10:09:41.315Z,102613.63
2023-03-02T10:12:43.308Z,102621.53
2023-03-02T10:15:26.104Z,102620.72
2023-03-02T10:18:04.098Z,102560.22
2023-03-02T10:20:37.567Z,102624.53
2023-03-02T10:23:41.718Z,102616.63
2023-03-02T10:26:20.204Z,102610.75
2023-03-02T10:29:05.915Z,102609.63
2023-03-02T10:31:34.133Z,102615.50
2023-03-02T10:34:01.341Z,102611.44
2023-03-02T10:36:30.484Z,102608.16
2023-03-02T10:39:00.431Z,102611.78
2023-03-02T10:41:41.363Z,102616.63
2023-03-02T10:44:37.779Z,102613.31
2023-03-02T10:47:06.180Z,102612.66
2023-03-02T10:49:39.504Z,102587.56
2023-03-02T10:52:14.092Z,102609.34
2023-03-02T10:54:41.087Z,102612.59
2023-03-02T10:57:29.096Z,102610.56
2023-03-02T11:00:01.998Z,102615.81
2023-03-02T11:02:29.696Z,102608.94
2023-03-02T11:05:20.006Z,102612.03
2023-03-02T11:08:08.546Z,102608.84
2023-03-02T11:10:41.213Z,102600.63
2023-03-02T11:13:20.672Z,102547.38
2023-03-02T11:15:49.420Z,102602.81
2023-03-02T11:18:25.016Z,102598.59
2023-03-02T11:21:22.790Z,102595.00
2023-03-02T11:24:00.632Z,102591.25
2023-03-02T11:26:32.298Z,102592.38
2023-03-02T11:29:04.253Z,102590.25
2023-03-02T11:31:49.824Z,102588.78
2023-03-02T11:34:43.441Z,102593.41
2023-03-02T11:37:48.197Z,102580.16
2023-03-02T11:40:21.595Z,102582.06
2023-03-02T11:42:48.426Z,102514.47
2023-03-02T11:45:15.477Z,102575.22
2023-03-02T11:48:02.150Z,102582.47
2023-03-02T11:50:30.875Z,102566.41
2023-03-02T11:53:06.372Z,102566.41
2023-03-02T11:55:42.976Z,102567.34
2023-03-02T11:58:18.292Z,102559.81
2023-03-02T12:00:45.598Z,102542.19
2023-03-02T12:03:15.147Z,102577.22
2023-03-02T12:05:44.947Z,102567.06
2023-03-02T12:08:20.757Z,102574.09
2023-03-02T12:11:18.053Z,102560.91
2023-03-02T12:13:53.495Z,102564.22
2023-03-02T12:16:36.276Z,102559.75
2023-03-02T12:19:29.121Z,102558.09
2023-03-02T12:22:10.574Z,102522.75
2023-03-02T12:24:39.587Z,102550.25
2023-03-02T12:27:25.647Z,102540.47
2023-03-02T12:29:57.610Z,102548.53
2023-03-02T12:32:30.247Z,102543.06
2023-03-02T12:35:02.848Z,102482.72
2023-03-02T12:37:36.493Z,102538.97
2023-03-02T12:40:15.276Z,102534.09
2023-03-02T12:43:19.754Z,102535.44
2023-03-02T12:46:03.472Z,102472.31
2023-03-02T12:48:36.173Z,102526.88
2023-03-02T12:51:05.862Z,102526.34
2023-03-02T12:53:32.427Z,102501.03
2023-03-02T12:55:59.013Z,102459.06
2023-03-02T12:58:28.378Z,102495.94
2023-03-02T13:00:59.326Z,102502.84
2023-03-02T13:03:28.000Z,102511.75
2023-03-02T13:06:02.959Z,102498.25
2023-03-02T13:08:31.248Z,102478.41
2023-03-02T13:11:01.553Z,102497.78
2023-03-02T13:13:41.718Z,102488.50
2023-03-02T13:16:23.274Z,102484.66
2023-03-02T13:18:57.034Z,102492.63
2023-03-02T13:21:39.576Z,102469.91
2023-03-02T13:24:44.881Z,102496.72
2023-03-02T13:27:22.715Z,102490.84
2023-03-02T13:29:50.226Z,102482.75
2023-03-02T13:32:19.248Z,102481.56
2023-03-02T13:34:57.439Z,102478.94
2023-03-02T13:37:39.130Z,102476.88
2023-03-02T13:40:27.709Z,102476.03
2023-03-02T13:42:54.743Z,102440.78
2023-03-02T13:45:23.793Z,102427.78
2023-03-02T13:47:50.403Z,102413.28
2023-03-02T13:50:26.672Z,102466.03
2023-03-02T13:52:56.870Z,102467.03
2023-03-02T13:55:24.316Z,102468.19
2023-03-02T13:57:52.767Z,102461.91
2023-03-02T14:00:21.600Z,102438.00
2023-03-02T14:02:50.566Z,102460.69
2023-03-02T14:05:33.283Z,102437.06
2023-03-02T14:08:01.184Z,102448.34
2023-03-02T14:10:27.863Z,102442.06
2023-03-02T14:13:02.457Z,102443.69
2023-03-02T14:15:28.989Z,102426.03
2023-03-02T14:17:55.577Z,102429.78
2023-03-02T14:20:22.111Z,102424.75
2023-03-02T14:22:50.549Z,102435.78
2023-03-02T14:25:17.296Z,102431.19
2023-03-02T14:27:44.344Z,102430.06
2023-03-02T14:30:20.434Z,102429.16
2023-03-02T14:32:47.304Z,102403.88
2023-03-02T14:35:15.938Z,102350.19
2023-03-02T14:37:49.848Z,102421.03
2023-03-02T14:40:28.230Z,102421.03
2023-03-02T14:42:55.040Z,102418.38
2023-03-02T14:45:21.832Z,102417.13
2023-03-02T14:47:49.154Z,102408.06
2023-03-02T14:50:17.350Z,102402.78
2023-03-02T14:52:48.284Z,102411.56
2023-03-02T14:55:20.735Z,102350.53
2023-03-02T14:57:50.111Z,102401.75
2023-03-02T15:00:16.958Z,102318.25
2023-03-02T15:02:43.626Z,102411.69
2023-03-02T15:05:10.304Z,102385.59
2023-03-02T15:07:39.027Z,102390.13
2023-03-02T15:10:06.530Z,102408.59
2023-03-02T15:12:33.857Z,102414.59
2023-03-02T15:15:00.653Z,102413.53
2023-03-02T15:17:27.238Z,102406.69
2023-03-02T15:19:53.781Z,102397.53
2023-03-02T15:22:20.285Z,102408.84
2023-03-02T15:24:46.921Z,102354.91
2023-03-02T15:27:14.647Z,102403.22
2023-03-02T15:29:46.260Z,102396.22
2023-03-02T15:32:13.458Z,102362.91
2023-03-02T15:34:39.987Z,102389.28
2023-03-02T15:37:06.746Z,102386.63
2023-03-02T15:39:34.053Z,102372.72
2023-03-02T15:42:01.100Z,102297.16
2023-03-02T15:44:29.739Z,102371.94
2023-03-02T15:46:58.720Z,102378.66
2023-03-02T15:49:28.331Z,102367.59
2023-03-02T15:51:59.583Z,102377.06
2023-03-02T15:54:26.908Z,102371.06
2023-03-02T15:56:53.680Z,102348.50
2023-03-02T15:59:21.533Z,102373.69
2023-03-02T16:01:48.070Z,102382.44
2023-03-02T16:04:14.596Z,102352.41
2023-03-02T16:06:41.571Z,102380.38
2023-03-02T16:09:08.463Z,102385.44
2023-03-02T16:11:35.069Z,102369.25
2023-03-02T16:14:01.730Z,102384.50
2023-03-02T16:16:28.578Z,102371.81
2023-03-02T16:18:57.384Z,102372.78
2023-03-02T16:21:25.709Z,102380.88
2023-03-02T16:23:55.645Z,102387.00
2023-03-02T16:26:22.730Z,102376.13
2023-03-02T16:28:49.413Z,102370.84
2023-03-02T16:31:20.169Z,102383.47
2023-03-02T16:33:47.633Z,102390.91
2023-03-02T16:36:14.800Z,102367.53
2023-03-02T16:38:41.877Z,102368.56
2023-03-02T16:41:14.579Z,102392.16
2023-03-02T16:43:55.816Z,102393.88
2023-03-02T16:46:24.430Z,102347.00
2023-03-02T16:48:51.956Z,102404.25
2023-03-02T16:51:20.985Z,102379.91
2023-03-02T16:53:47.644Z,102339.59
2023-03-02T16:56:15.101Z,102394.41
2023-03-02T16:58:42.916Z,102389.78
2023-03-02T17:01:12.503Z,102407.19
2023-03-02T17:03:39.089Z,102378.19
2023-03-02T17:06:07.873Z,102399.75
2023-03-02T17:08:34.956Z,102412.97
2023-03-02T17:11:01.764Z,102415.72
2023-03-02T17:13:28.510Z,102401.78
2023-03-02T17:15:55.166Z,102428.28
2023-03-02T17:18:21.721Z,102428.22
2023-03-02T17:20:52.560Z,102425.72
2023-03-02T17:23:19.121Z,102426.59
2023-03-02T17:25:45.660Z,102426.41
2023-03-02T17:28:12.705Z,102420.03
2023-03-02T17:30:39.879Z,102423.00
2023-03-02T17:33:06.643Z,102418.53
2023-03-02T17:35:33.200Z,102427.31
2023-03-02T17:38:03.032Z,102333.09
2023-03-02T17:40:29.717Z,102396.44
2023-03-02T17:42:57.763Z,102380.00
2023-03-02T17:45:26.660Z,102428.47
2023-03-02T17:47:54.558Z,102333.22
2023-03-02T17:50:22.427Z,102422.28
2023-03-02T17:52:49.723Z,102426.66
2023-03-02T17:55:17.022Z,102429.25
2023-03-02T17:57:43.574Z,102425.00
2023-03-02T18:00:14.419Z,102425.44
2023-03-02T18:02:41.068Z,102333.75
2023-03-02T18:05:10.107Z,102435.50
2023-03-02T18:07:37.182Z,102428.25
2023-03-02T18:10:05.082Z,102431.69
2023-03-02T18:12:31.770Z,102420.34
2023-03-02T18:14:58.328Z,102352.84
2023-03-02T18:17:24.925Z,102419.22
2023-03-02T18:19:51.517Z,102373.19
2023-03-02T18:22:18.085Z,102427.00
2023-03-02T18:24:44.590Z,102430.53
2023-03-02T18:27:11.172Z,102362.25
2023-03-02T18:29:37.726Z,102403.59
2023-03-02T18:32:04.391Z,102415.44
2023-03-02T18:34:30.931Z,102422.25
2023-03-02T18:36:57.568Z,102384.94
2023-03-02T18:39:24.111Z,102418.81
2023-03-02T18:41:50.650Z,102416.47
2023-03-02T18:44:17.815Z,102419.28
2023-03-02T18:46:44.341Z,102418.31
2023-03-02T18:49:11.080Z,102384.28
2023-03-02T18:51:37.913Z,102424.31
2023-03-02T18:54:05.218Z,102412.88
2023-03-02T18:56:31.747Z,102420.72
2023-03-02T18:58:58.395Z,102422.38
2023-03-02T19:01:26.287Z,102430.34
2023-03-02T19:03:56.905Z,102436.53
2023-03-02T19:06:23.592Z,102425.72
2023-03-02T19:08:50.146Z,102403.25
2023-03-02T19:11:16.708Z,102434.41
2023-03-02T19:13:43.202Z,102406.47
2023-03-02T19:16:09.769Z,102437.41
2023-03-02T19:18:37.926Z,102436.41
2023-03-02T19:21:05.394Z,102427.16
2023-03-02T19:23:33.120Z,102424.47
2023-03-02T19:26:00.594Z,102435.44
2023-03-02T19:28:27.722Z,102433.97
2023-03-02T19:30:54.225Z,102403.63
2023-03-02T19:33:20.769Z,102359.31
2023-03-02T19:35:47.363Z,102437.44
2023-03-02T19:38:13.894Z,102435.03
2023-03-02T19:40:40.524Z,102396.28
2023-03-02T19:43:07.116Z,102393.25
2023-03-02T19:45:34.998Z,102439.81
2023-03-02T19:48:02.996Z,102426.44
2023-03-02T19:50:30.293Z,102450.34
2023-03-02T19:52:58.178Z,102426.72
2023-03-02T19:55:25.818Z,102425.84
2023-03-02T19:57:59.590Z,102177.19
2023-03-02T20:00:28.529Z,102399.28
2023-03-02T20:02:55.373Z,102435.09
2023-03-02T20:05:21.919Z,102407.91
2023-03-02T20:07:48.375Z,102434.31
2023-03-02T20:10:43.315Z,102437.13
2023-03-02T20:13:10.805Z,102390.38
2023-03-02T20:15:40.898Z,102440.28
2023-03-02T20:18:14.794Z,102438.94
2023-03-02T20:20:42.274Z,102449.59
2023-03-02T20:23:09.018Z,102450.56
2023-03-02T20:25:36.579Z,102459.47
2023-03-02T20:28:05.914Z,102401.88
2023-03-02T20:30:39.938Z,102449.03
2023-03-02T20:33:08.035Z,102455.25
2023-03-02T20:35:37.755Z,102451.13
2023-03-02T20:38:06.262Z,102450.22
2023-03-02T20:40:34.075Z,102444.69
2023-03-02T20:43:01.084Z,102446.41
2023-03-02T20:45:28.403Z,102453.41
2023-03-02T20:47:55.537Z,102388.25
2023-03-02T20:50:25.402Z,102455.59
2023-03-02T20:52:51.994Z,102453.94
2023-03-02T20:55:19.331Z,102459.22
2023-03-02T20:57:46.131Z,102452.19
2023-03-02T21:00:21.090Z,102443.47
2023-03-02T21:02:48.449Z,102366.69
2023-03-02T21:05:15.740Z,102444.44
2023-03-02T21:07:43.088Z,102457.19
2023-03-02T21:10:13.418Z,102443.91
2023-03-02T21:12:40.061Z,102440.50
2023-03-02T21:15:07.245Z,102441.41
2023-03-02T21:17:33.871Z,102382.00
2023-03-02T21:20:00.356Z,102438.78
2023-03-02T21:22:27.213Z,102431.00
2023-03-02T21:24:53.966Z,102374.06
2023-03-02T21:27:21.114Z,102425.00
2023-03-02T21:29:48.798Z,102424.09
2023-03-02T21:32:15.556Z,102434.16
2023-03-02T21:34:42.273Z,102425.22
2023-03-02T21:37:08.794Z,102341.41
2023-03-02T21:39:35.366Z,102380.66
2023-03-02T21:42:01.852Z,102334.31
2023-03-02T21:44:28.380Z,102389.44
2023-03-02T21:46:55.087Z,102401.84
2023-03-02T21:49:23.179Z,102416.88
2023-03-02T21:51:50.992Z,102352.06
2023-03-02T21:54:17.618Z,102295.97
2023-03-02T21:56:44.569Z,102343.13
2023-03-02T21:59:12.364Z,102411.41
2023-03-02T22:01:38.851Z,102411.41
2023-03-02T22:04:05.759Z,102410.69
2023-03-02T22:06:34.233Z,102415.81
2023-03-02T22:09:01.673Z,102410.53
2023-03-02T22:11:32.713Z,102385.75
2023-03-02T22:14:02.443Z,102409.50
2023-03-02T22:16:38.270Z,102408.75
2023-03-02T22:19:20.507Z,102408.00
2023-03-02T22:21:50.628Z,102372.00
2023-03-02T22:24:25.798Z,102341.75
2023-03-02T22:27:04.639Z,102403.84
2023-03-02T22:29:44.716Z,102414.31
2023-03-02T22:32:19.130Z,102409.03
2023-03-02T22:34:47.656Z,102407.41
2023-03-02T22:37:20.439Z,102409.09
2023-03-02T22:39:48.428Z,102425.91
2023-03-02T22:42:20.648Z,102413.47
2023-03-02T22:45:22.633Z,102414.22
2023-03-02T22:47:51.504Z,102386.22
2023-03-02T22:50:22.635Z,102419.72
2023-03-02T22:52:49.993Z,102414.53
2023-03-02T22:55:36.888Z,102426.88
2023-03-02T22:58:27.176Z,102426.84
2023-03-02T23:00:54.006Z,102379.88
2023-03-02T23:03:23.630Z,102368.63
2023-03-02T23:05:52.820Z,102429.03
2023-03-02T23:08:24.285Z,102427.25
2023-03-02T23:10:53.983Z,102409.88
2023-03-02T23:13:25.179Z,102416.53
2023-03-02T23:15:53.426Z,102370.00
2023-03-02T23:18:24.410Z,102423.25
2023-03-02T23:20:51.948Z,102364.88
2023-03-02T23:23:19.879Z,102418.94
2023-03-02T23:25:46.768Z,102412.63
2023-03-02T23:28:13.312Z,102354.88
2023-03-02T23:30:39.801Z,102409.34
2023-03-02T23:33:07.090Z,102414.50
2023-03-02T23:35:33.682Z,102373.50
2023-03-02T23:38:01.585Z,102374.34
2023-03-02T23:40:29.286Z,102341.38
2023-03-02T23:42:56.081Z,102399.94
2023-03-02T23:45:22.709Z,102400.63
2023-03-02T23:47:49.280Z,102353.34
2023-03-02T23:50:16.266Z,102384.53
2023-03-02T23:52:42.970Z,102400.34
2023-03-02T23:55:10.108Z,102401.06
2023-03-02T23:57:36.834Z,102391.38
